sensor_id;sensor_type;location;lat;lon;timestamp;P1;durP1;ratioP1;P2;durP2;ratioP2
20166;SDS011;10243;49.118;8.508;2023-03-16T03:03:03;35.70;;;27.40;;
20166;SDS011;10243;49.118;8.508;2023-03-16T03:03:25;33.67;;;27.33;;
20166;SDS011;10243;49.118;8.508;2023-03-16T07:17:14;18.02;;;15.32;;
20166;SDS011;10243;49.118;8.508;2023-03-16T07:17:35;19.65;;;15.25;;
20166;SDS011;10243;49.118;8.508;2023-03-16T08:04:10;14.55;;;12.90;;
20166;SDS011;10243;49.118;8.508;2023-03-16T08:04:32;15.80;;;13.32;;
20166;SDS011;10243;49.118;8.508;2023-03-16T08:04:53;16.65;;;13.52;;
20166;SDS011;10243;49.118;8.508;2023-03-16T08:05:15;13.80;;;12.40;;
20166;SDS011;10243;49.118;8.508;2023-03-16T08:05:40;14.23;;;12.63;;
20166;SDS011;10243;49.118;8.508;2023-03-16T08:06:06;15.40;;;12.48;;
20166;SDS011;10243;49.118;8.508;2023-03-16T08:06:29;14.38;;;12.98;;
20166;SDS011;10243;49.118;8.508;2023-03-16T08:06:49;14.47;;;12.80;;
20166;SDS011;10243;49.118;8.508;2023-03-16T08:07:12;13.98;;;12.57;;
20166;SDS011;10243;49.118;8.508;2023-03-16T08:07:45;15.20;;;13.60;;
20166;SDS011;10243;49.118;8.508;2023-03-16T08:08:10;17.48;;;12.23;;
20166;SDS011;10243;49.118;8.508;2023-03-16T08:08:32;15.00;;;12.80;;
20166;SDS011;10243;49.118;8.508;2023-03-16T08:08:53;15.63;;;12.52;;
20166;SDS011;10243;49.118;8.508;2023-03-16T08:09:20;18.48;;;13.02;;
20166;SDS011;10243;49.118;8.508;2023-03-16T08:09:42;15.05;;;12.57;;
20166;SDS011;10243;49.118;8.508;2023-03-16T08:10:04;14.23;;;12.45;;
20166;SDS011;10243;49.118;8.508;2023-03-16T08:10:33;14.00;;;12.52;;
20166;SDS011;10243;49.118;8.508;2023-03-16T08:11:01;15.60;;;12.98;;
20166;SDS011;10243;49.118;8.508;2023-03-16T08:11:32;15.18;;;13.00;;
20166;SDS011;10243;49.118;8.508;2023-03-16T08:12:17;13.73;;;12.40;;
20166;SDS011;10243;49.118;8.508;2023-03-16T08:12:38;15.90;;;12.32;;
20166;SDS011;10243;49.118;8.508;2023-03-16T08:12:58;14.40;;;12.35;;
20166;SDS011;10243;49.118;8.508;2023-03-16T08:13:19;15.50;;;13.03;;
20166;SDS011;10243;49.118;8.508;2023-03-16T08:13:41;15.65;;;12.52;;
20166;SDS011;10243;49.118;8.508;2023-03-16T08:14:03;13.43;;;12.13;;
20166;SDS011;10243;49.118;8.508;2023-03-16T08:14:45;14.13;;;12.25;;
20166;SDS011;10243;49.118;8.508;2023-03-16T08:15:19;13.48;;;12.07;;
20166;SDS011;10243;49.118;8.508;2023-03-16T08:15:44;13.75;;;12.32;;
20166;SDS011;10243;49.118;8.508;2023-03-16T08:16:12;17.15;;;12.00;;
20166;SDS011;10243;49.118;8.508;2023-03-16T08:16:36;13.85;;;12.35;;
20166;SDS011;10243;49.118;8.508;2023-03-16T08:16:57;13.80;;;12.27;;
20166;SDS011;10243;49.118;8.508;2023-03-16T08:17:20;16.17;;;12.32;;
20166;SDS011;10243;49.118;8.508;2023-03-16T08:17:42;14.15;;;12.35;;
20166;SDS011;10243;49.118;8.508;2023-03-16T08:18:07;15.93;;;12.52;;
20166;SDS011;10243;49.118;8.508;2023-03-16T08:18:29;13.23;;;11.77;;
20166;SDS011;10243;49.118;8.508;2023-03-16T08:18:50;12.57;;;11.38;;
20166;SDS011;10243;49.118;8.508;2023-03-16T08:19:12;13.88;;;12.10;;
20166;SDS011;10243;49.118;8.508;2023-03-16T08:19:34;16.48;;;12.13;;
20166;SDS011;10243;49.118;8.508;2023-03-16T08:19:58;13.33;;;11.57;;
20166;SDS011;10243;49.118;8.508;2023-03-16T08:20:19;13.97;;;11.43;;
20166;SDS011;10243;49.118;8.508;2023-03-16T08:20:41;15.68;;;11.40;;
20166;SDS011;10243;49.118;8.508;2023-03-16T08:21:02;12.75;;;11.35;;
20166;SDS011;10243;49.118;8.508;2023-03-16T08:21:22;12.37;;;11.03;;
20166;SDS011;10243;49.118;8.508;2023-03-16T08:21:43;12.85;;;11.30;;
20166;SDS011;10243;49.118;8.508;2023-03-16T08:22:04;14.40;;;11.85;;
20166;SDS011;10243;49.118;8.508;2023-03-16T08:22:32;12.90;;;11.07;;
20166;SDS011;10243;49.118;8.508;2023-03-16T08:22:52;13.60;;;11.07;;
20166;SDS011;10243;49.118;8.508;2023-03-16T08:23:18;13.40;;;11.30;;
20166;SDS011;10243;49.118;8.508;2023-03-16T08:23:39;16.45;;;11.80;;
20166;SDS011;10243;49.118;8.508;2023-03-16T08:24:01;14.95;;;11.82;;
20166;SDS011;10243;49.118;8.508;2023-03-16T08:24:23;15.00;;;11.63;;
20166;SDS011;10243;49.118;8.508;2023-03-16T08:24:43;15.03;;;12.00;;
20166;SDS011;10243;49.118;8.508;2023-03-16T08:25:07;13.48;;;11.93;;
20166;SDS011;10243;49.118;8.508;2023-03-16T08:25:29;13.15;;;11.65;;
20166;SDS011;10243;49.118;8.508;2023-03-16T08:25:58;16.60;;;11.43;;
20166;SDS011;10243;49.118;8.508;2023-03-16T08:26:21;12.45;;;11.15;;
20166;SDS011;10243;49.118;8.508;2023-03-16T08:26:46;12.68;;;11.20;;
20166;SDS011;10243;49.118;8.508;2023-03-16T08:27:07;12.65;;;11.43;;
20166;SDS011;10243;49.118;8.508;2023-03-16T08:27:29;12.80;;;11.55;;
20166;SDS011;10243;49.118;8.508;2023-03-16T08:27:54;12.63;;;11.25;;
20166;SDS011;10243;49.118;8.508;2023-03-16T08:28:17;12.70;;;11.32;;
20166;SDS011;10243;49.118;8.508;2023-03-16T08:28:40;14.25;;;11.27;;
20166;SDS011;10243;49.118;8.508;2023-03-16T08:29:05;12.90;;;11.70;;
20166;SDS011;10243;49.118;8.508;2023-03-16T08:29:28;12.15;;;10.95;;
20166;SDS011;10243;49.118;8.508;2023-03-16T08:29:50;11.65;;;10.52;;
20166;SDS011;10243;49.118;8.508;2023-03-16T08:30:13;12.05;;;10.73;;
20166;SDS011;10243;49.118;8.508;2023-03-16T08:30:42;13.80;;;11.18;;
20166;SDS011;10243;49.118;8.508;2023-03-16T08:31:13;12.13;;;10.82;;
20166;SDS011;10243;49.118;8.508;2023-03-16T08:31:59;13.13;;;11.82;;
20166;SDS011;10243;49.118;8.508;2023-03-16T08:32:25;15.88;;;11.55;;
20166;SDS011;10243;49.118;8.508;2023-03-16T08:32:47;14.77;;;11.50;;
20166;SDS011;10243;49.118;8.508;2023-03-16T08:33:08;13.95;;;11.07;;
20166;SDS011;10243;49.118;8.508;2023-03-16T08:33:29;13.00;;;11.07;;
20166;SDS011;10243;49.118;8.508;2023-03-16T08:33:51;12.75;;;11.10;;
20166;SDS011;10243;49.118;8.508;2023-03-16T08:34:16;12.13;;;10.85;;
20166;SDS011;10243;49.118;8.508;2023-03-16T08:34:37;13.52;;;11.50;;
20166;SDS011;10243;49.118;8.508;2023-03-16T08:34:59;12.93;;;11.43;;
20166;SDS011;10243;49.118;8.508;2023-03-16T08:35:20;12.63;;;11.43;;
20166;SDS011;10243;49.118;8.508;2023-03-16T08:35:41;12.63;;;11.32;;
20166;SDS011;10243;49.118;8.508;2023-03-16T08:36:04;13.77;;;11.45;;
20166;SDS011;10243;49.118;8.508;2023-03-16T08:36:25;12.82;;;11.32;;
20166;SDS011;10243;49.118;8.508;2023-03-16T08:36:48;13.93;;;11.07;;
20166;SDS011;10243;49.118;8.508;2023-03-16T08:37:09;14.83;;;11.87;;
20166;SDS011;10243;49.118;8.508;2023-03-16T08:37:29;14.35;;;11.60;;
20166;SDS011;10243;49.118;8.508;2023-03-16T08:37:51;12.85;;;11.55;;
20166;SDS011;10243;49.118;8.508;2023-03-16T08:38:11;12.85;;;11.60;;
20166;SDS011;10243;49.118;8.508;2023-03-16T08:38:32;13.30;;;11.98;;
20166;SDS011;10243;49.118;8.508;2023-03-16T08:38:58;13.63;;;12.20;;
20166;SDS011;10243;49.118;8.508;2023-03-16T08:39:19;13.43;;;12.02;;
20166;SDS011;10243;49.118;8.508;2023-03-16T08:39:41;13.98;;;12.18;;
20166;SDS011;10243;49.118;8.508;2023-03-16T08:40:08;13.13;;;11.60;;
20166;SDS011;10243;49.118;8.508;2023-03-16T08:40:30;14.95;;;12.27;;
20166;SDS011;10243;49.118;8.508;2023-03-16T08:40:54;13.90;;;12.48;;
20166;SDS011;10243;49.118;8.508;2023-03-16T08:41:16;14.20;;;11.88;;
20166;SDS011;10243;49.118;8.508;2023-03-16T08:41:39;13.77;;;11.57;;
20166;SDS011;10243;49.118;8.508;2023-03-16T08:42:03;12.65;;;11.35;;
20166;SDS011;10243;49.118;8.508;2023-03-16T08:42:33;13.07;;;11.60;;
20166;SDS011;10243;49.118;8.508;2023-03-16T08:42:56;12.68;;;11.40;;
20166;SDS011;10243;49.118;8.508;2023-03-16T08:43:17;13.13;;;11.68;;
20166;SDS011;10243;49.118;8.508;2023-03-16T08:43:38;13.68;;;11.70;;
20166;SDS011;10243;49.118;8.508;2023-03-16T08:43:59;12.98;;;11.68;;
20166;SDS011;10243;49.118;8.508;2023-03-16T08:44:20;13.60;;;12.20;;
20166;SDS011;10243;49.118;8.508;2023-03-16T08:44:42;15.20;;;11.85;;
20166;SDS011;10243;49.118;8.508;2023-03-16T08:45:04;12.65;;;11.32;;
20166;SDS011;10243;49.118;8.508;2023-03-16T08:45:29;14.15;;;11.65;;
20166;SDS011;10243;49.118;8.508;2023-03-16T08:45:49;12.43;;;11.33;;
20166;SDS011;10243;49.118;8.508;2023-03-16T08:46:14;13.00;;;11.65;;
20166;SDS011;10243;49.118;8.508;2023-03-16T08:46:41;12.98;;;11.45;;
20166;SDS011;10243;49.118;8.508;2023-03-16T08:47:01;12.82;;;11.35;;
20166;SDS011;10243;49.118;8.508;2023-03-16T08:47:24;14.10;;;11.63;;
20166;SDS011;10243;49.118;8.508;2023-03-16T08:47:45;12.20;;;11.00;;
20166;SDS011;10243;49.118;8.508;2023-03-16T08:48:07;14.32;;;10.85;;
20166;SDS011;10243;49.118;8.508;2023-03-16T08:48:32;11.50;;;10.38;;
20166;SDS011;10243;49.118;8.508;2023-03-16T08:48:52;11.55;;;10.45;;
20166;SDS011;10243;49.118;8.508;2023-03-16T08:49:18;14.20;;;10.48;;
20166;SDS011;10243;49.118;8.508;2023-03-16T08:49:44;13.85;;;11.18;;
20166;SDS011;10243;49.118;8.508;2023-03-16T08:50:09;13.43;;;11.57;;
20166;SDS011;10243;49.118;8.508;2023-03-16T08:50:31;12.77;;;11.57;;
20166;SDS011;10243;49.118;8.508;2023-03-16T08:50:52;12.68;;;11.45;;
20166;SDS011;10243;49.118;8.508;2023-03-16T08:51:13;13.47;;;12.00;;
20166;SDS011;10243;49.118;8.508;2023-03-16T08:51:34;15.88;;;12.85;;
20166;SDS011;10243;49.118;8.508;2023-03-16T08:51:54;13.73;;;11.77;;
20166;SDS011;10243;49.118;8.508;2023-03-16T08:52:16;13.25;;;11.13;;
20166;SDS011;10243;49.118;8.508;2023-03-16T08:52:36;12.73;;;10.57;;
20166;SDS011;10243;49.118;8.508;2023-03-16T08:52:57;14.57;;;10.98;;
20166;SDS011;10243;49.118;8.508;2023-03-16T08:53:18;12.10;;;10.88;;
20166;SDS011;10243;49.118;8.508;2023-03-16T08:53:40;12.25;;;11.05;;
20166;SDS011;10243;49.118;8.508;2023-03-16T08:54:00;11.83;;;10.73;;
20166;SDS011;10243;49.118;8.508;2023-03-16T08:54:21;11.50;;;10.25;;
20166;SDS011;10243;49.118;8.508;2023-03-16T08:54:41;11.57;;;10.38;;
20166;SDS011;10243;49.118;8.508;2023-03-16T08:55:04;11.70;;;10.35;;
20166;SDS011;10243;49.118;8.508;2023-03-16T08:55:24;14.23;;;10.63;;
20166;SDS011;10243;49.118;8.508;2023-03-16T08:55:45;11.63;;;10.52;;
20166;SDS011;10243;49.118;8.508;2023-03-16T08:56:06;11.45;;;10.35;;
20166;SDS011;10243;49.118;8.508;2023-03-16T08:56:28;12.07;;;10.20;;
20166;SDS011;10243;49.118;8.508;2023-03-16T08:56:49;12.65;;;10.57;;
20166;SDS011;10243;49.118;8.508;2023-03-16T08:57:10;12.25;;;10.60;;
20166;SDS011;10243;49.118;8.508;2023-03-16T08:57:31;11.65;;;10.45;;
20166;SDS011;10243;49.118;8.508;2023-03-16T08:57:52;11.93;;;10.68;;
20166;SDS011;10243;49.118;8.508;2023-03-16T08:58:14;12.70;;;11.23;;
20166;SDS011;10243;49.118;8.508;2023-03-16T08:58:34;13.33;;;10.47;;
20166;SDS011;10243;49.118;8.508;2023-03-16T08:58:55;12.98;;;10.30;;
20166;SDS011;10243;49.118;8.508;2023-03-16T08:59:16;12.32;;;10.32;;
20166;SDS011;10243;49.118;8.508;2023-03-16T08:59:38;11.57;;;9.82;;
20166;SDS011;10243;49.118;8.508;2023-03-16T08:59:58;10.75;;;9.65;;
20166;SDS011;10243;49.118;8.508;2023-03-16T09:00:19;11.20;;;10.20;;
20166;SDS011;10243;49.118;8.508;2023-03-16T09:00:40;11.70;;;10.60;;
20166;SDS011;10243;49.118;8.508;2023-03-16T09:01:02;11.65;;;10.48;;
20166;SDS011;10243;49.118;8.508;2023-03-16T09:01:24;12.18;;;10.70;;
20166;SDS011;10243;49.118;8.508;2023-03-16T09:01:45;12.65;;;10.80;;
20166;SDS011;10243;49.118;8.508;2023-03-16T09:02:09;11.90;;;10.63;;
20166;SDS011;10243;49.118;8.508;2023-03-16T09:02:30;11.65;;;10.43;;
20166;SDS011;10243;49.118;8.508;2023-03-16T09:02:51;12.30;;;10.52;;
20166;SDS011;10243;49.118;8.508;2023-03-16T09:03:11;11.60;;;10.40;;
20166;SDS011;10243;49.118;8.508;2023-03-16T09:03:32;11.25;;;10.15;;
20166;SDS011;10243;49.118;8.508;2023-03-16T09:03:53;10.93;;;9.85;;
20166;SDS011;10243;49.118;8.508;2023-03-16T09:04:14;10.73;;;9.73;;
20166;SDS011;10243;49.118;8.508;2023-03-16T09:04:37;10.75;;;9.70;;
20166;SDS011;10243;49.118;8.508;2023-03-16T09:04:57;10.68;;;9.68;;
20166;SDS011;10243;49.118;8.508;2023-03-16T09:05:18;11.00;;;9.90;;
20166;SDS011;10243;49.118;8.508;2023-03-16T09:05:38;11.53;;;10.33;;
20166;SDS011;10243;49.118;8.508;2023-03-16T09:06:00;11.05;;;9.95;;
20166;SDS011;10243;49.118;8.508;2023-03-16T09:06:21;11.73;;;10.55;;
20166;SDS011;10243;49.118;8.508;2023-03-16T09:06:41;12.47;;;10.50;;
20166;SDS011;10243;49.118;8.508;2023-03-16T09:07:02;11.03;;;10.07;;
20166;SDS011;10243;49.118;8.508;2023-03-16T09:07:23;10.68;;;9.68;;
20166;SDS011;10243;49.118;8.508;2023-03-16T09:07:44;11.33;;;10.10;;
20166;SDS011;10243;49.118;8.508;2023-03-16T09:08:04;12.35;;;10.38;;
20166;SDS011;10243;49.118;8.508;2023-03-16T09:08:26;11.02;;;9.57;;
20166;SDS011;10243;49.118;8.508;2023-03-16T09:08:47;10.45;;;9.27;;
20166;SDS011;10243;49.118;8.508;2023-03-16T09:09:08;10.37;;;9.47;;
20166;SDS011;10243;49.118;8.508;2023-03-16T09:09:30;12.13;;;9.85;;
20166;SDS011;10243;49.118;8.508;2023-03-16T09:09:50;11.20;;;9.27;;
20166;SDS011;10243;49.118;8.508;2023-03-16T09:10:11;10.43;;;9.40;;
20166;SDS011;10243;49.118;8.508;2023-03-16T09:10:35;11.07;;;9.98;;
20166;SDS011;10243;49.118;8.508;2023-03-16T09:11:00;11.20;;;10.10;;
20166;SDS011;10243;49.118;8.508;2023-03-16T09:11:20;12.25;;;9.77;;
20166;SDS011;10243;49.118;8.508;2023-03-16T09:11:41;10.80;;;9.67;;
20166;SDS011;10243;49.118;8.508;2023-03-16T09:12:02;10.18;;;9.38;;
20166;SDS011;10243;49.118;8.508;2023-03-16T09:12:23;10.48;;;9.48;;
20166;SDS011;10243;49.118;8.508;2023-03-16T09:12:44;10.83;;;9.80;;
20166;SDS011;10243;49.118;8.508;2023-03-16T09:13:04;10.97;;;9.80;;
20166;SDS011;10243;49.118;8.508;2023-03-16T09:13:26;10.55;;;9.65;;
20166;SDS011;10243;49.118;8.508;2023-03-16T09:13:46;10.95;;;9.85;;
20166;SDS011;10243;49.118;8.508;2023-03-16T09:14:07;11.03;;;9.87;;
20166;SDS011;10243;49.118;8.508;2023-03-16T09:14:30;12.65;;;9.70;;
20166;SDS011;10243;49.118;8.508;2023-03-16T09:14:51;13.93;;;9.80;;
20166;SDS011;10243;49.118;8.508;2023-03-16T09:15:11;10.53;;;9.43;;
20166;SDS011;10243;49.118;8.508;2023-03-16T09:15:33;10.75;;;9.65;;
20166;SDS011;10243;49.118;8.508;2023-03-16T09:15:55;10.35;;;9.40;;
20166;SDS011;10243;49.118;8.508;2023-03-16T09:16:16;10.15;;;9.35;;
20166;SDS011;10243;49.118;8.508;2023-03-16T09:16:36;10.40;;;9.37;;
20166;SDS011;10243;49.118;8.508;2023-03-16T09:16:58;10.88;;;9.27;;
20166;SDS011;10243;49.118;8.508;2023-03-16T09:17:18;10.00;;;9.00;;
20166;SDS011;10243;49.118;8.508;2023-03-16T09:17:40;10.82;;;8.65;;
20166;SDS011;10243;49.118;8.508;2023-03-16T09:18:00;11.10;;;9.20;;
20166;SDS011;10243;49.118;8.508;2023-03-16T09:18:23;10.63;;;9.02;;
20166;SDS011;10243;49.118;8.508;2023-03-16T09:18:45;10.05;;;8.85;;
20166;SDS011;10243;49.118;8.508;2023-03-16T09:19:05;11.60;;;9.37;;
20166;SDS011;10243;49.118;8.508;2023-03-16T09:19:27;10.65;;;9.00;;
20166;SDS011;10243;49.118;8.508;2023-03-16T09:19:48;10.60;;;9.50;;
20166;SDS011;10243;49.118;8.508;2023-03-16T09:20:12;10.18;;;9.23;;
20166;SDS011;10243;49.118;8.508;2023-03-16T09:20:34;9.93;;;9.07;;
20166;SDS011;10243;49.118;8.508;2023-03-16T09:20:56;10.00;;;8.90;;
20166;SDS011;10243;49.118;8.508;2023-03-16T09:21:17;10.45;;;9.35;;
20166;SDS011;10243;49.118;8.508;2023-03-16T09:21:38;9.80;;;8.90;;
20166;SDS011;10243;49.118;8.508;2023-03-16T09:21:59;9.48;;;8.65;;
20166;SDS011;10243;49.118;8.508;2023-03-16T09:22:19;10.20;;;9.20;;
20166;SDS011;10243;49.118;8.508;2023-03-16T09:22:41;11.07;;;9.23;;
20166;SDS011;10243;49.118;8.508;2023-03-16T09:23:01;10.57;;;9.57;;
20166;SDS011;10243;49.118;8.508;2023-03-16T09:23:23;10.60;;;9.40;;
20166;SDS011;10243;49.118;8.508;2023-03-16T09:23:45;10.95;;;9.70;;
20166;SDS011;10243;49.118;8.508;2023-03-16T09:24:05;10.00;;;8.97;;
20166;SDS011;10243;49.118;8.508;2023-03-16T09:24:27;10.32;;;8.93;;
20166;SDS011;10243;49.118;8.508;2023-03-16T09:24:48;11.85;;;9.50;;
20166;SDS011;10243;49.118;8.508;2023-03-16T09:25:10;10.05;;;9.07;;
20166;SDS011;10243;49.118;8.508;2023-03-16T09:25:30;10.33;;;9.23;;
20166;SDS011;10243;49.118;8.508;2023-03-16T09:25:51;11.32;;;9.20;;
20166;SDS011;10243;49.118;8.508;2023-03-16T09:26:13;11.48;;;9.30;;
20166;SDS011;10243;49.118;8.508;2023-03-16T09:26:34;9.77;;;8.88;;
20166;SDS011;10243;49.118;8.508;2023-03-16T09:26:55;11.17;;;9.33;;
20166;SDS011;10243;49.118;8.508;2023-03-16T09:27:15;11.38;;;9.13;;
20166;SDS011;10243;49.118;8.508;2023-03-16T09:27:37;10.85;;;8.88;;
20166;SDS011;10243;49.118;8.508;2023-03-16T09:27:57;9.60;;;8.70;;
20166;SDS011;10243;49.118;8.508;2023-03-16T09:28:18;9.68;;;8.68;;
20166;SDS011;10243;49.118;8.508;2023-03-16T09:28:40;10.75;;;8.98;;
20166;SDS011;10243;49.118;8.508;2023-03-16T09:29:03;9.55;;;8.65;;
20166;SDS011;10243;49.118;8.508;2023-03-16T09:29:27;9.80;;;8.57;;
20166;SDS011;10243;49.118;8.508;2023-03-16T09:29:52;10.80;;;8.43;;
20166;SDS011;10243;49.118;8.508;2023-03-16T09:30:15;9.77;;;8.77;;
20166;SDS011;10243;49.118;8.508;2023-03-16T09:30:36;10.03;;;8.47;;
20166;SDS011;10243;49.118;8.508;2023-03-16T09:30:56;9.32;;;8.30;;
20166;SDS011;10243;49.118;8.508;2023-03-16T09:31:18;9.60;;;8.70;;
20166;SDS011;10243;49.118;8.508;2023-03-16T09:31:38;9.90;;;8.98;;
20166;SDS011;10243;49.118;8.508;2023-03-16T09:32:02;12.45;;;9.00;;
20166;SDS011;10243;49.118;8.508;2023-03-16T09:32:44;9.50;;;8.47;;
20166;SDS011;10243;49.118;8.508;2023-03-16T09:33:07;8.98;;;8.00;;
20166;SDS011;10243;49.118;8.508;2023-03-16T09:33:29;8.90;;;7.95;;
20166;SDS011;10243;49.118;8.508;2023-03-16T09:33:51;9.45;;;8.23;;
20166;SDS011;10243;49.118;8.508;2023-03-16T09:34:14;8.90;;;8.03;;
20166;SDS011;10243;49.118;8.508;2023-03-16T09:34:35;9.20;;;8.25;;
20166;SDS011;10243;49.118;8.508;2023-03-16T09:34:57;10.20;;;8.30;;
20166;SDS011;10243;49.118;8.508;2023-03-16T09:35:18;9.77;;;8.43;;
20166;SDS011;10243;49.118;8.508;2023-03-16T09:35:39;10.43;;;8.55;;
20166;SDS011;10243;49.118;8.508;2023-03-16T09:36:00;9.83;;;8.20;;
20166;SDS011;10243;49.118;8.508;2023-03-16T09:36:21;9.23;;;8.05;;
20166;SDS011;10243;49.118;8.508;2023-03-16T09:36:42;9.15;;;8.23;;
20166;SDS011;10243;49.118;8.508;2023-03-16T09:37:04;9.13;;;8.20;;
20166;SDS011;10243;49.118;8.508;2023-03-16T09:37:25;9.35;;;8.35;;
20166;SDS011;10243;49.118;8.508;2023-03-16T09:37:46;9.68;;;8.38;;
20166;SDS011;10243;49.118;8.508;2023-03-16T09:38:08;9.25;;;8.20;;
20166;SDS011;10243;49.118;8.508;2023-03-16T09:38:28;9.50;;;8.20;;
20166;SDS011;10243;49.118;8.508;2023-03-16T09:38:49;10.57;;;8.00;;
20166;SDS011;10243;49.118;8.508;2023-03-16T09:39:13;9.30;;;8.10;;
20166;SDS011;10243;49.118;8.508;2023-03-16T09:39:35;10.20;;;7.95;;
20166;SDS011;10243;49.118;8.508;2023-03-16T09:39:59;8.93;;;8.02;;
20166;SDS011;10243;49.118;8.508;2023-03-16T09:40:20;9.07;;;8.23;;
20166;SDS011;10243;49.118;8.508;2023-03-16T09:40:42;10.93;;;8.10;;
20166;SDS011;10243;49.118;8.508;2023-03-16T09:41:06;10.57;;;8.18;;
20166;SDS011;10243;49.118;8.508;2023-03-16T09:41:34;9.35;;;8.07;;
20166;SDS011;10243;49.118;8.508;2023-03-16T09:41:59;10.93;;;8.43;;
20166;SDS011;10243;49.118;8.508;2023-03-16T09:42:25;9.02;;;8.10;;
20166;SDS011;10243;49.118;8.508;2023-03-16T09:42:48;9.80;;;8.13;;
20166;SDS011;10243;49.118;8.508;2023-03-16T09:43:19;8.85;;;7.95;;
20166;SDS011;10243;49.118;8.508;2023-03-16T09:43:48;9.30;;;7.90;;
20166;SDS011;10243;49.118;8.508;2023-03-16T09:44:20;9.77;;;8.25;;
20166;SDS011;10243;49.118;8.508;2023-03-16T09:44:45;9.10;;;8.20;;
20166;SDS011;10243;49.118;8.508;2023-03-16T09:45:11;8.57;;;7.70;;
20166;SDS011;10243;49.118;8.508;2023-03-16T09:45:34;9.60;;;8.18;;
20166;SDS011;10243;49.118;8.508;2023-03-16T09:45:59;8.77;;;8.07;;
20166;SDS011;10243;49.118;8.508;2023-03-16T09:46:23;8.93;;;8.10;;
20166;SDS011;10243;49.118;8.508;2023-03-16T09:46:46;8.95;;;8.13;;
20166;SDS011;10243;49.118;8.508;2023-03-16T09:47:09;9.48;;;7.82;;
20166;SDS011;10243;49.118;8.508;2023-03-16T09:47:31;8.73;;;7.82;;
20166;SDS011;10243;49.118;8.508;2023-03-16T09:47:54;8.32;;;7.53;;
20166;SDS011;10243;49.118;8.508;2023-03-16T09:48:16;9.02;;;8.13;;
20166;SDS011;10243;49.118;8.508;2023-03-16T09:48:37;10.38;;;8.18;;
20166;SDS011;10243;49.118;8.508;2023-03-16T09:49:00;9.75;;;7.85;;
20166;SDS011;10243;49.118;8.508;2023-03-16T09:49:22;8.73;;;7.93;;
20166;SDS011;10243;49.118;8.508;2023-03-16T09:49:45;8.88;;;8.02;;
20166;SDS011;10243;49.118;8.508;2023-03-16T09:50:10;8.23;;;7.53;;
20166;SDS011;10243;49.118;8.508;2023-03-16T09:50:36;8.98;;;8.05;;
20166;SDS011;10243;49.118;8.508;2023-03-16T09:50:58;9.07;;;8.15;;
20166;SDS011;10243;49.118;8.508;2023-03-16T09:51:21;8.73;;;7.90;;
20166;SDS011;10243;49.118;8.508;2023-03-16T09:51:43;8.73;;;7.90;;
20166;SDS011;10243;49.118;8.508;2023-03-16T09:52:08;8.90;;;7.97;;
20166;SDS011;10243;49.118;8.508;2023-03-16T09:52:34;8.60;;;7.77;;
20166;SDS011;10243;49.118;8.508;2023-03-16T09:52:59;8.75;;;7.80;;
20166;SDS011;10243;49.118;8.508;2023-03-16T09:53:23;11.30;;;7.50;;
20166;SDS011;10243;49.118;8.508;2023-03-16T09:53:44;8.00;;;7.20;;
20166;SDS011;10243;49.118;8.508;2023-03-16T09:54:09;8.40;;;7.65;;
20166;SDS011;10243;49.118;8.508;2023-03-16T09:54:35;12.35;;;7.40;;
20166;SDS011;10243;49.118;8.508;2023-03-16T09:54:58;8.18;;;7.22;;
20166;SDS011;10243;49.118;8.508;2023-03-16T09:55:23;7.70;;;7.00;;
20166;SDS011;10243;49.118;8.508;2023-03-16T09:55:47;7.93;;;7.22;;
20166;SDS011;10243;49.118;8.508;2023-03-16T09:56:11;8.98;;;7.35;;
20166;SDS011;10243;49.118;8.508;2023-03-16T09:56:34;8.18;;;7.32;;
20166;SDS011;10243;49.118;8.508;2023-03-16T09:56:57;8.25;;;7.45;;
20166;SDS011;10243;49.118;8.508;2023-03-16T09:57:23;9.10;;;7.63;;
20166;SDS011;10243;49.118;8.508;2023-03-16T09:57:44;10.57;;;7.47;;
20166;SDS011;10243;49.118;8.508;2023-03-16T09:58:09;11.90;;;7.43;;
20166;SDS011;10243;49.118;8.508;2023-03-16T09:58:32;10.50;;;7.18;;
20166;SDS011;10243;49.118;8.508;2023-03-16T09:58:53;9.88;;;6.97;;
20166;SDS011;10243;49.118;8.508;2023-03-16T09:59:14;10.20;;;7.05;;
20166;SDS011;10243;49.118;8.508;2023-03-16T09:59:36;8.80;;;7.57;;
20166;SDS011;10243;49.118;8.508;2023-03-16T10:00:00;12.05;;;7.65;;
20166;SDS011;10243;49.118;8.508;2023-03-16T10:00:23;10.65;;;7.10;;
20166;SDS011;10243;49.118;8.508;2023-03-16T10:00:46;10.75;;;7.57;;
20166;SDS011;10243;49.118;8.508;2023-03-16T10:01:11;11.07;;;7.93;;
20166;SDS011;10243;49.118;8.508;2023-03-16T10:01:36;10.18;;;7.47;;
20166;SDS011;10243;49.118;8.508;2023-03-16T10:02:03;10.70;;;7.55;;
20166;SDS011;10243;49.118;8.508;2023-03-16T10:03:08;8.10;;;6.72;;
20166;SDS011;10243;49.118;8.508;2023-03-16T10:03:32;8.23;;;7.00;;
20166;SDS011;10243;49.118;8.508;2023-03-16T10:03:57;9.48;;;7.10;;
20166;SDS011;10243;49.118;8.508;2023-03-16T10:04:25;8.15;;;7.03;;
20166;SDS011;10243;49.118;8.508;2023-03-16T10:04:52;10.55;;;7.05;;
20166;SDS011;10243;49.118;8.508;2023-03-16T10:05:20;7.10;;;6.50;;
20166;SDS011;10243;49.118;8.508;2023-03-16T10:05:40;8.27;;;7.13;;
20166;SDS011;10243;49.118;8.508;2023-03-16T10:06:02;8.50;;;7.50;;
20166;SDS011;10243;49.118;8.508;2023-03-16T10:06:24;8.80;;;7.72;;
20166;SDS011;10243;49.118;8.508;2023-03-16T10:06:47;9.73;;;7.45;;
20166;SDS011;10243;49.118;8.508;2023-03-16T10:07:14;13.50;;;7.53;;
20166;SDS011;10243;49.118;8.508;2023-03-16T10:07:42;8.68;;;7.22;;
20166;SDS011;10243;49.118;8.508;2023-03-16T10:08:07;8.85;;;7.70;;
20166;SDS011;10243;49.118;8.508;2023-03-16T10:08:29;9.73;;;8.30;;
20166;SDS011;10243;49.118;8.508;2023-03-16T10:08:53;8.95;;;8.02;;
20166;SDS011;10243;49.118;8.508;2023-03-16T10:09:16;10.13;;;7.78;;
20166;SDS011;10243;49.118;8.508;2023-03-16T10:09:42;9.45;;;7.80;;
20166;SDS011;10243;49.118;8.508;2023-03-16T10:10:05;9.32;;;8.35;;
20166;SDS011;10243;49.118;8.508;2023-03-16T10:11:23;8.20;;;7.40;;
20166;SDS011;10243;49.118;8.508;2023-03-16T10:11:45;9.50;;;7.30;;
20166;SDS011;10243;49.118;8.508;2023-03-16T10:12:06;12.20;;;7.65;;
20166;SDS011;10243;49.118;8.508;2023-03-16T10:12:29;8.25;;;7.40;;
20166;SDS011;10243;49.118;8.508;2023-03-16T10:12:51;7.88;;;7.13;;
20166;SDS011;10243;49.118;8.508;2023-03-16T10:13:15;8.15;;;7.13;;
20166;SDS011;10243;49.118;8.508;2023-03-16T10:13:38;8.93;;;6.93;;
20166;SDS011;10243;49.118;8.508;2023-03-16T10:14:01;11.77;;;6.95;;
20166;SDS011;10243;49.118;8.508;2023-03-16T10:14:24;8.13;;;6.85;;
20166;SDS011;10243;49.118;8.508;2023-03-16T10:14:46;7.20;;;6.50;;
20166;SDS011;10243;49.118;8.508;2023-03-16T10:15:10;7.63;;;6.93;;
20166;SDS011;10243;49.118;8.508;2023-03-16T10:15:31;10.32;;;6.88;;
20166;SDS011;10243;49.118;8.508;2023-03-16T10:15:54;11.82;;;6.55;;
20166;SDS011;10243;49.118;8.508;2023-03-16T10:16:17;8.07;;;6.75;;
20166;SDS011;10243;49.118;8.508;2023-03-16T10:16:40;8.30;;;6.68;;
20166;SDS011;10243;49.118;8.508;2023-03-16T10:17:05;8.13;;;6.70;;
20166;SDS011;10243;49.118;8.508;2023-03-16T10:17:29;6.70;;;6.10;;
20166;SDS011;10243;49.118;8.508;2023-03-16T10:17:53;6.68;;;6.05;;
20166;SDS011;10243;49.118;8.508;2023-03-16T10:18:16;6.53;;;5.93;;
20166;SDS011;10243;49.118;8.508;2023-03-16T10:18:40;6.57;;;5.97;;
20166;SDS011;10243;49.118;8.508;2023-03-16T10:19:02;6.90;;;6.20;;
20166;SDS011;10243;49.118;8.508;2023-03-16T10:19:30;7.30;;;6.60;;
20166;SDS011;10243;49.118;8.508;2023-03-16T10:19:54;7.47;;;6.22;;